Time;durP1;ratioP1;P1;durP2;ratioP2;P2;SDS_P1;SDS_P2;PMS_P1;PMS_P2;Temp;Humidity;BMP_temperature;BMP_pressure;BME280_temperature;BME280_humidity;BME280_pressure;Samples;Min_cycle;Max_cycle;Signal;HPM_P1;HPM_P2
2023/10/01 00:00:28;;;;;;;6.80;4.85;;;23.80;63.90;;;;;;7403695;19;19918;-74
2023/10/01 00:02:56;;;;;;;9.75;4.47;;;23.80;63.80;;;;;;7408571;19;19918;-73
2023/10/01 00:05:24;;;;;;;7.57;4.20;;;23.80;63.10;;;;;;7405012;19;20069;-73
2023/10/01 00:07:51;;;;;;;6.95;4.63;;;23.70;63.50;;;;;;7407042;19;20323;-74
2023/10/01 00:10:19;;;;;;;10.02;4.28;;;23.70;63.50;;;;;;7407398;19;19949;-74
2023/10/01 00:12:47;;;;;;;7.55;3.50;;;23.60;63.00;;;;;;7406678;19;20430;-74
2023/10/01 00:15:16;;;;;;;8.15;4.40;;;23.60;63.60;;;;;;7406288;19;19922;-73
2023/10/01 00:17:45;;;;;;;8.98;3.90;;;23.60;63.40;;;;;;7382088;19;19918;-74
2023/10/01 00:20:20;;;;;;;;;;;;;;;;;;;;;
2023/10/01 00:22:46;;;;;;;9.07;4.07;;;23.50;61.70;;;;;;7406314;19;20070;-73
2023/10/01 00:25:12;;;;;;;7.35;3.65;;;23.50;60.00;;;;;;7403495;19;19990;-74
2023/10/01 00:27:38;;;;;;;;;;;23.50;59.80;;;;;;7410794;19;19998;-74
2023/10/01 00:30:09;;;;;;;8.05;3.65;;;23.50;59.40;;;;;;7403727;19;19930;-74
2023/10/01 00:32:35;;;;;;;5.68;3.67;;;23.50;59.40;;;;;;7405088;19;19978;-73
2023/10/01 00:35:03;;;;;;;4.43;3.42;;;23.50;59.00;;;;;;7402600;19;19922;-74
2023/10/01 00:37:29;;;;;;;4.78;2.95;;;23.50;59.20;;;;;;7402376;19;19926;-74
2023/10/01 00:39:59;;;;;;;7.07;3.92;;;23.50;59.00;;;;;;7382712;19;20013;-73
2023/10/01 00:42:26;;;;;;;5.97;3.85;;;23.50;59.30;;;;;;7403237;19;20003;-73
2023/10/01 00:44:53;;;;;;;7.57;3.75;;;23.40;59.00;;;;;;7404934;19;19914;-74
2023/10/01 00:47:21;;;;;;;4.90;3.05;;;23.40;58.70;;;;;;7397756;19;19963;-74
2023/10/01 00:49:47;;;;;;;7.57;4.07;;;23.40;58.90;;;;;;7402024;19;19919;-73
2023/10/01 00:52:20;;;;;;;7.53;3.78;;;23.40;58.90;;;;;;7377955;19;19919;-73
2023/10/01 00:54:47;;;;;;;6.80;3.90;;;23.40;58.70;;;;;;7403910;19;19934;-74
2023/10/01 00:57:15;;;;;;;;;;;23.40;58.60;;;;;;7383268;19;19914;-73
2023/10/01 00:59:43;;;;;;;8.13;4.15;;;23.40;58.80;;;;;;7383800;19;19941;-73
2023/10/01 01:02:15;;;;;;;5.90;3.40;;;23.40;59.10;;;;;;7401467;19;19966;-73
2023/10/01 01:04:44;;;;;;;7.85;4.43;;;23.40;59.00;;;;;;7403983;19;19918;-73
2023/10/01 01:07:19;;;;;;;8.55;4.90;;;23.40;60.00;;;;;;7402071;19;19918;-73
2023/10/01 01:09:47;;;;;;;9.32;5.20;;;23.30;61.20;;;;;;7402041;19;20040;-73
2023/10/01 01:12:13;;;;;;;12.45;5.32;;;23.40;62.10;;;;;;7401418;19;19914;-73
2023/10/01 01:14:44;;;;;;;10.65;5.45;;;23.30;63.00;;;;;;7402700;19;19911;-73
2023/10/01 01:17:12;;;;;;;10.25;5.63;;;23.30;65.30;;;;;;7402436;19;19921;-72
2023/10/01 01:19:39;;;;;;;10.90;5.55;;;23.30;65.10;;;;;;7403728;19;19910;-73
2023/10/01 01:22:05;;;;;;;7.57;5.03;;;23.30;65.00;;;;;;7399100;19;19929;-73
2023/10/01 01:24:32;;;;;;;12.27;5.90;;;23.20;65.70;;;;;;7403918;19;19922;-73
2023/10/01 01:27:05;;;;;;;12.73;5.90;;;23.20;68.50;;;;;;7402835;19;19911;-74
2023/10/01 01:29:40;;;;;;;9.00;5.63;;;23.20;68.30;;;;;;7401580;19;19940;-73
2023/10/01 01:32:07;;;;;;;10.38;5.55;;;23.20;67.30;;;;;;7404407;19;20327;-73
2023/10/01 01:34:36;;;;;;;10.52;6.60;;;23.20;67.90;;;;;;7404227;19;19938;-74
2023/10/01 01:37:05;;;;;;;9.40;5.70;;;23.10;69.30;;;;;;7382374;19;20347;-73
2023/10/01 01:39:54;;;;;;;10.80;5.90;;;23.10;70.50;;;;;;7404061;19;19911;-74
2023/10/01 01:42:21;;;;;;;8.00;5.28;;;23.10;70.40;;;;;;7398386;19;20236;-75
2023/10/01 01:47:39;;;;;;;10.00;5.85;;;23.10;70.00;;;;;;7403717;19;19926;-74
2023/10/01 01:50:17;;;;;;;9.27;6.63;;;23.10;70.80;;;;;;7403111;19;19925;-74
2023/10/01 01:52:50;;;;;;;11.95;6.65;;;23.00;71.30;;;;;;7402301;19;19921;-74
2023/10/01 01:55:26;;;;;;;8.98;6.47;;;23.10;72.10;;;;;;7401239;19;19914;-74
2023/10/01 01:58:06;;;;;;;10.32;6.53;;;23.00;72.50;;;;;;7405156;19;20335;-74
2023/10/01 02:00:34;;;;;;;10.13;5.35;;;23.00;72.50;;;;;;7401084;19;19919;-74
2023/10/01 02:03:10;;;;;;;9.13;5.90;;;23.00;71.90;;;;;;7403305;19;19922;-74
2023/10/01 02:05:41;;;;;;;12.75;8.13;;;23.00;73.00;;;;;;7398443;19;19939;-73
2023/10/01 02:08:23;;;;;;;11.35;6.22;;;23.00;76.60;;;;;;7397508;19;19934;-73
2023/10/01 02:10:50;;;;;;;11.45;6.28;;;23.00;75.20;;;;;;7403979;19;20338;-74
2023/10/01 02:13:19;;;;;;;10.05;6.25;;;23.00;74.00;;;;;;7401798;19;19941;-73
2023/10/01 02:15:46;;;;;;;14.48;6.43;;;23.00;73.80;;;;;;7403017;19;20268;-73
2023/10/01 02:18:16;;;;;;;12.25;6.28;;;23.00;73.80;;;;;;7398127;19;19921;-73
2023/10/01 02:20:44;;;;;;;10.88;6.80;;;23.00;74.20;;;;;;7402042;19;20354;-73
2023/10/01 02:23:13;;;;;;;12.77;7.05;;;22.90;75.10;;;;;;7400089;19;19938;-73
2023/10/01 02:25:45;;;;;;;17.50;7.15;;;23.00;75.70;;;;;;7403959;19;19918;-74
2023/10/01 02:28:14;;;;;;;14.02;6.65;;;22.90;74.00;;;;;;7398943;19;19926;-74
2023/10/01 02:30:41;;;;;;;9.02;6.55;;;22.90;74.30;;;;;;7400931;19;19927;-73
2023/10/01 02:33:20;;;;;;;11.45;6.60;;;22.80;74.90;;;;;;7400099;19;19926;-74
2023/10/01 02:35:50;;;;;;;10.65;6.05;;;22.80;75.00;;;;;;7402437;19;20295;-74
2023/10/01 02:41:02;;;;;;;10.38;7.03;;;22.80;77.00;;;;;;7402346;19;19934;-73
2023/10/01 02:43:34;;;;;;;10.10;6.55;;;22.80;78.20;;;;;;7400143;19;19995;-73
2023/10/01 02:46:11;;;;;;;8.85;6.82;;;22.80;78.00;;;;;;7402877;19;19911;-72
2023/10/01 02:48:42;;;;;;;10.25;5.97;;;22.80;78.00;;;;;;7400798;19;19926;-74
2023/10/01 02:51:15;;;;;;;11.07;6.47;;;22.70;77.80;;;;;;7397275;19;19926;-73
2023/10/01 02:54:04;;;;;;;;;;;22.80;77.90;;;;;;7402431;19;20220;-73
2023/10/01 02:56:37;;;;;;;10.25;6.13;;;22.80;77.90;;;;;;7397404;19;19910;-73
2023/10/01 02:59:18;;;;;;;10.30;6.30;;;22.80;77.70;;;;;;7397708;19;19922;-74
2023/10/01 03:01:45;;;;;;;8.40;5.47;;;22.70;77.30;;;;;;7399518;19;19938;-73
2023/10/01 03:04:16;;;;;;;8.95;5.70;;;22.80;77.40;;;;;;7396975;19;20029;-74
2023/10/01 03:06:47;;;;;;;11.30;6.43;;;22.80;77.30;;;;;;7397536;19;19978;-73
2023/10/01 03:09:39;;;;;;;7.38;5.00;;;22.70;77.40;;;;;;7398379;19;19929;-73
2023/10/01 03:17:38;;;;;;;;;;;22.80;73.90;;;;;;7402413;19;19950;-73
2023/10/01 03:21:04;;;;;;;7.28;4.70;;;22.70;73.70;;;;;;7403665;19;19942;-73
2023/10/01 03:23:01;;;;;;;9.73;4.70;;;22.70;73.20;;;;;;7402533;19;20299;-74
2023/10/01 03:25:40;;;;;;;8.52;5.40;;;22.70;72.80;;;;;;7401933;19;19919;-73
2023/10/01 03:28:13;;;;;;;7.55;4.63;;;22.80;73.00;;;;;;7403390;19;19978;-73
2023/10/01 03:30:46;;;;;;;7.22;4.50;;;22.70;72.30;;;;;;7402044;19;19945;-73
2023/10/01 03:33:15;;;;;;;6.85;4.28;;;22.70;72.00;;;;;;7402327;19;19918;-73
2023/10/01 03:35:48;;;;;;;6.18;4.28;;;22.70;71.50;;;;;;7405111;19;19994;-74
2023/10/01 03:38:15;;;;;;;7.60;4.80;;;22.70;70.90;;;;;;7402899;19;19939;-72
2023/10/01 03:41:00;;;;;;;6.28;4.30;;;22.70;71.20;;;;;;7405821;19;19915;-73
2023/10/01 03:43:31;;;;;;;7.22;4.35;;;22.70;71.00;;;;;;7382059;19;19939;-73
2023/10/01 03:49:00;;;;;;;8.10;4.15;;;22.70;70.20;;;;;;7405114;19;19998;-74
2023/10/01 03:57:16;;;;;;;5.88;3.58;;;22.70;69.00;;;;;;7402121;19;19929;-73
2023/10/01 03:59:51;;;;;;;8.35;3.45;;;22.70;68.00;;;;;;7405217;19;19977;-72
2023/10/01 04:02:46;;;;;;;6.20;3.72;;;22.80;67.20;;;;;;7402740;19;19950;-73
2023/10/01 04:05:30;;;;;;;6.72;3.60;;;22.90;66.70;;;;;;7402940;19;19930;-73
2023/10/01 04:08:04;;;;;;;8.88;4.28;;;22.90;66.80;;;;;;7404761;19;19911;-73
2023/10/01 04:10:31;;;;;;;6.03;3.08;;;22.90;66.70;;;;;;7400773;19;20271;-73
2023/10/01 04:13:00;;;;;;;7.47;4.15;;;22.90;66.70;;;;;;7404631;19;19915;-74
2023/10/01 04:15:29;;;;;;;6.60;4.18;;;22.90;67.00;;;;;;7401609;19;19974;-73
2023/10/01 04:23:32;;;;;;;5.97;4.00;;;22.80;68.00;;;;;;7404463;19;20278;-73
2023/10/01 04:26:06;;;;;;;9.18;4.70;;;22.90;68.10;;;;;;7403034;19;19927;-73
2023/10/01 04:28:54;;;;;;;7.90;4.70;;;22.90;68.20;;;;;;7401365;19;19923;-73
2023/10/01 04:31:42;;;;;;;5.63;3.95;;;22.90;68.10;;;;;;7404981;19;19927;-74
2023/10/01 04:34:10;;;;;;;7.10;4.30;;;22.90;68.10;;;;;;7404011;19;19998;-73
2023/10/01 04:36:38;;;;;;;5.90;3.97;;;22.90;68.30;;;;;;7402514;19;19918;-72
2023/10/01 04:39:04;;;;;;;7.57;4.00;;;22.90;68.30;;;;;;7400369;19;19922;-72
2023/10/01 04:41:31;;;;;;;6.50;3.97;;;22.80;68.50;;;;;;7402907;19;20339;-72
2023/10/01 04:44:06;;;;;;;6.95;4.28;;;22.90;68.90;;;;;;7403139;19;20350;-71
2023/10/01 04:46:37;;;;;;;7.82;4.13;;;22.80;68.50;;;;;;7402903;19;19922;-72
2023/10/01 04:51:49;;;;;;;21.48;13.65;;;23.00;67.50;;;;;;7404858;19;19946;-72
2023/10/01 04:54:17;;;;;;;21.60;13.38;;;22.90;67.40;;;;;;7393984;19;19911;-72
2023/10/01 04:56:48;;;;;;;7.82;4.40;;;22.90;67.50;;;;;;7403620;19;19946;-72
2023/10/01 04:59:15;;;;;;;6.57;4.32;;;22.90;67.70;;;;;;7399008;19;19918;-72
2023/10/01 05:01:42;;;;;;;7.82;4.32;;;22.90;68.10;;;;;;7404505;19;19946;-75
2023/10/01 05:04:14;;;;;;;6.95;3.90;;;22.80;68.40;;;;;;7400555;19;19922;-71
2023/10/01 05:06:59;;;;;;;6.45;3.78;;;22.80;68.40;;;;;;7401648;19;19918;-72
2023/10/01 05:09:29;;;;;;;7.47;4.38;;;22.80;68.30;;;;;;7399463;19;19919;-72
2023/10/01 05:11:55;;;;;;;8.90;4.20;;;22.80;67.80;;;;;;7402936;19;19929;-72
2023/10/01 05:14:22;;;;;;;6.30;4.68;;;22.80;67.70;;;;;;7399438;19;19922;-71
2023/10/01 05:16:54;;;;;;;6.00;4.32;;;22.90;68.10;;;;;;7400560;19;20347;-72
2023/10/01 05:19:23;;;;;;;7.25;4.60;;;22.80;68.40;;;;;;7400735;19;19910;-71
2023/10/01 05:21:52;;;;;;;9.40;4.75;;;22.70;68.90;;;;;;7400140;19;19918;-72
2023/10/01 05:24:36;;;;;;;6.85;4.93;;;22.70;69.40;;;;;;7398734;19;19915;-72
2023/10/01 05:27:10;;;;;;;7.95;5.18;;;22.60;69.90;;;;;;7400207;19;19926;-73
2023/10/01 05:29:39;;;;;;;7.03;4.70;;;22.60;70.30;;;;;;7399663;19;19932;-73
2023/10/01 05:32:05;;;;;;;6.72;4.65;;;22.50;70.90;;;;;;7397436;19;19931;-73
2023/10/01 05:34:34;;;;;;;6.57;4.47;;;22.50;71.70;;;;;;7402308;19;19941;-73
2023/10/01 05:37:09;;;;;;;7.55;5.38;;;22.50;73.20;;;;;;7401736;19;19922;-73
2023/10/01 05:39:59;;;;;;;9.70;5.00;;;22.50;74.30;;;;;;7400123;19;19919;-73
2023/10/01 05:42:26;;;;;;;;;;;22.50;74.90;;;;;;7383460;19;19922;-74
2023/10/01 05:44:54;;;;;;;8.80;4.95;;;22.40;75.80;;;;;;7403570;19;20284;-74
2023/10/01 05:47:22;;;;;;;9.15;5.45;;;22.50;77.40;;;;;;7400306;19;19929;-74
2023/10/01 05:49:53;;;;;;;8.07;5.30;;;22.50;79.40;;;;;;7374225;19;20323;-72
2023/10/01 05:52:20;;;;;;;8.07;5.30;;;22.50;80.50;;;;;;7398947;19;20382;-72
2023/10/01 05:54:52;;;;;;;8.57;5.75;;;22.50;81.40;;;;;;7400941;19;19953;-72
2023/10/01 05:57:21;;;;;;;8.57;5.72;;;22.50;82.90;;;;;;7400639;19;19918;-72
2023/10/01 06:00:00;;;;;;;8.43;4.63;;;22.50;84.10;;;;;;7398966;19;20282;-72
2023/10/01 06:02:47;;;;;;;9.88;5.63;;;22.50;84.50;;;;;;7398353;19;19941;-72
2023/10/01 06:05:25;;;;;;;8.40;4.95;;;22.50;84.80;;;;;;7397819;19;19924;-72
2023/10/01 06:07:55;;;;;;;7.68;5.38;;;22.50;85.20;;;;;;7402374;19;19925;-72
2023/10/01 06:10:27;;;;;;;9.85;5.10;;;22.50;85.60;;;;;;7398978;19;19948;-72
2023/10/01 06:12:57;;;;;;;6.88;5.25;;;22.50;85.80;;;;;;7400344;19;19954;-72
2023/10/01 06:15:29;;;;;;;8.43;5.20;;;22.50;86.20;;;;;;7401383;19;19947;-72
2023/10/01 06:17:56;;;;;;;6.75;4.63;;;22.50;86.50;;;;;;7398499;19;19923;-72
2023/10/01 06:20:26;;;;;;;11.13;4.93;;;22.60;86.60;;;;;;7377135;19;19981;-73
2023/10/01 06:22:59;;;;;;;7.65;5.28;;;22.60;86.90;;;;;;7403746;19;19918;-72
2023/10/01 06:25:41;;;;;;;7.22;4.85;;;22.70;86.80;;;;;;7401827;19;19922;-73
2023/10/01 06:28:09;;;;;;;7.38;4.47;;;22.80;86.70;;;;;;7397399;19;20296;-72
2023/10/01 06:30:39;;;;;;;7.60;4.50;;;22.80;86.80;;;;;;7399127;19;19932;-72
2023/10/01 06:33:08;;;;;;;7.43;4.53;;;22.80;86.70;;;;;;7398625;19;19923;-73
2023/10/01 06:35:56;;;;;;;11.88;5.53;;;22.90;87.40;;;;;;7400789;19;20258;-73
2023/10/01 06:38:22;;;;;;;8.68;4.78;;;22.90;87.10;;;;;;7398164;19;19940;-73
2023/10/01 06:40:49;;;;;;;10.77;5.45;;;23.00;87.20;;;;;;7396622;19;19915;-73
2023/10/01 06:43:15;;;;;;;7.72;4.63;;;23.10;87.10;;;;;;7400819;19;19982;-73
2023/10/01 06:45:41;;;;;;;8.75;4.57;;;23.10;86.80;;;;;;7398679;19;20250;-72
2023/10/01 06:48:10;;;;;;;8.98;4.75;;;23.20;86.80;;;;;;7398616;19;19914;-71
2023/10/01 06:50:46;;;;;;;10.90;5.93;;;23.20;87.00;;;;;;7398507;19;19915;-72
2023/10/01 06:53:13;;;;;;;13.30;6.35;;;23.30;87.30;;;;;;7398478;19;19927;-72
2023/10/01 06:55:45;;;;;;;11.40;5.03;;;23.30;87.50;;;;;;7403108;19;20043;-73
2023/10/01 06:58:13;;;;;;;10.18;5.82;;;23.40;87.00;;;;;;7377608;19;19927;-72
2023/10/01 07:00:41;;;;;;;9.63;5.47;;;23.40;86.80;;;;;;7374628;19;20046;-73
2023/10/01 07:03:22;;;;;;;11.00;5.63;;;23.50;86.90;;;;;;7396866;19;19946;-72
2023/10/01 07:05:55;;;;;;;10.82;5.38;;;23.50;86.70;;;;;;7402579;19;20317;-72
2023/10/01 07:08:37;;;;;;;8.65;4.75;;;23.50;86.00;;;;;;7400540;19;19922;-72
2023/10/01 07:11:11;;;;;;;11.75;5.85;;;23.60;85.60;;;;;;7399135;19;19942;-73
2023/10/01 07:13:40;;;;;;;19.80;10.55;;;23.60;85.20;;;;;;7395802;19;20455;-73
2023/10/01 07:16:09;;;;;;;9.32;5.55;;;23.70;84.70;;;;;;7395008;19;20352;-74
2023/10/01 07:18:37;;;;;;;12.18;6.00;;;23.70;84.40;;;;;;7400488;19;20495;-74
2023/10/01 07:21:12;;;;;;;10.45;5.80;;;23.70;83.90;;;;;;7397867;19;19914;-74
2023/10/01 07:23:38;;;;;;;9.48;5.40;;;23.80;83.90;;;;;;7396873;19;19974;-73
2023/10/01 07:26:12;;;;;;;9.20;5.75;;;23.80;83.10;;;;;;7393579;19;19918;-74
2023/10/01 07:28:41;;;;;;;10.23;6.22;;;23.80;82.20;;;;;;7400693;19;19918;-74
2023/10/01 07:31:22;;;;;;;11.98;5.60;;;23.90;81.80;;;;;;7377586;19;19936;-77
2023/10/01 07:33:48;;;;;;;8.63;4.72;;;24.00;81.00;;;;;;7375576;19;19909;-74
2023/10/01 07:36:14;;;;;;;10.27;5.63;;;24.00;80.80;;;;;;7392814;19;19915;-74
2023/10/01 07:38:56;;;;;;;12.35;5.45;;;24.10;80.40;;;;;;7391493;19;19922;-73
2023/10/01 07:41:24;;;;;;;10.52;6.30;;;24.10;79.70;;;;;;7374109;19;19940;-73
2023/10/01 07:43:53;;;;;;;11.63;6.15;;;24.20;79.20;;;;;;7396711;19;19922;-73
2023/10/01 07:46:19;;;;;;;11.57;6.00;;;24.20;78.70;;;;;;7394002;19;19951;-73
2023/10/01 07:48:49;;;;;;;11.35;5.63;;;24.30;78.20;;;;;;7397417;19;19926;-74
2023/10/01 07:51:26;;;;;;;10.90;5.80;;;24.30;77.60;;;;;;7392996;19;19922;-74
2023/10/01 07:53:53;;;;;;;10.90;5.63;;;24.40;77.00;;;;;;7395192;19;20023;-72
2023/10/01 07:56:25;;;;;;;11.23;6.03;;;24.40;76.20;;;;;;7392795;19;19914;-74
2023/10/01 07:59:16;;;;;;;10.23;5.90;;;24.50;75.90;;;;;;7395296;19;19926;-72
2023/10/01 08:01:45;;;;;;;10.55;5.40;;;24.50;75.40;;;;;;7394992;19;19915;-73
2023/10/01 08:04:57;;;;;;;8.95;5.20;;;24.60;75.00;;;;;;7398553;19;19934;-74
2023/10/01 08:07:05;;;;;;;10.65;6.05;;;24.60;74.80;;;;;;7403157;19;20032;-73
2023/10/01 08:09:51;;;;;;;;;;;24.70;73.90;;;;;;7405737;19;20375;-72
2023/10/01 08:12:29;;;;;;;11.50;5.72;;;24.80;73.00;;;;;;7401278;19;19922;-72
2023/10/01 08:17:44;;;;;;;12.57;6.40;;;24.90;71.10;;;;;;7404921;19;20270;-72
2023/10/01 08:20:21;;;;;;;11.75;6.22;;;25.00;70.20;;;;;;7403487;19;19945;-74
2023/10/01 08:25:42;;;;;;;10.00;5.60;;;25.10;67.30;;;;;;7403947;19;19918;-73
2023/10/01 08:28:29;;;;;;;12.65;6.18;;;25.20;66.60;;;;;;7403512;19;19919;-73
2023/10/01 08:33:42;;;;;;;10.07;5.72;;;25.30;65.20;;;;;;7402957;19;19942;-73
2023/10/01 08:36:14;;;;;;;11.23;5.95;;;25.50;64.20;;;;;;7382099;19;19918;-72
2023/10/01 08:38:47;;;;;;;10.85;6.40;;;25.70;63.50;;;;;;7402793;19;19966;-73
2023/10/01 08:41:32;;;;;;;13.38;6.68;;;25.80;62.70;;;;;;7405359;19;20969;-74
2023/10/01 08:44:11;;;;;;;12.68;6.25;;;25.80;61.70;;;;;;7404486;19;20393;-74
2023/10/01 08:46:40;;;;;;;13.13;6.35;;;26.00;60.70;;;;;;7403115;19;19999;-74
2023/10/01 08:49:22;;;;;;;13.35;6.43;;;26.20;59.80;;;;;;7404072;19;19918;-75
2023/10/01 08:51:53;;;;;;;12.50;7.20;;;26.30;58.40;;;;;;7402558;19;19919;-73
2023/10/01 08:54:25;;;;;;;10.75;6.60;;;26.40;57.70;;;;;;7400625;19;19919;-73
2023/10/01 08:56:57;;;;;;;12.80;6.40;;;26.50;57.20;;;;;;7383105;19;19914;-74
2023/10/01 08:59:23;;;;;;;12.00;6.03;;;26.70;56.90;;;;;;7403620;19;20015;-74
2023/10/01 09:01:52;;;;;;;17.48;10.43;;;26.90;55.60;;;;;;7405707;19;19911;-74
2023/10/01 09:04:29;;;;;;;11.48;6.78;;;26.90;54.90;;;;;;7405748;19;19930;-74
2023/10/01 09:07:03;;;;;;;12.35;6.38;;;26.90;54.50;;;;;;7402304;19;20324;-72
2023/10/01 09:10:01;;;;;;;10.82;5.55;;;27.00;54.20;;;;;;7401985;19;20813;-74
2023/10/01 09:12:27;;;;;;;11.23;5.50;;;27.00;53.50;;;;;;7401069;19;20263;-74
2023/10/01 09:14:53;;;;;;;11.30;6.88;;;27.10;53.50;;;;;;7404214;19;19919;-74
2023/10/01 09:17:26;;;;;;;11.15;6.40;;;27.20;52.80;;;;;;7379596;19;19925;-75
2023/10/01 09:19:54;;;;;;;11.10;6.10;;;27.30;51.90;;;;;;7403942;19;19942;-76
2023/10/01 09:23:02;;;;;;;10.15;5.95;;;27.40;51.40;;;;;;7403224;19;19918;-74
2023/10/01 09:25:19;;;;;;;14.43;6.82;;;27.50;51.20;;;;;;7401417;19;19934;-75
2023/10/01 09:28:38;;;;;;;11.95;6.43;;;27.60;50.80;;;;;;7404727;19;19946;-74
2023/10/01 09:31:37;;;;;;;13.35;7.18;;;27.60;51.20;;;;;;7404594;19;19934;-75
2023/10/01 09:33:57;;;;;;;13.27;6.47;;;27.60;50.70;;;;;;7380930;19;19926;-76
2023/10/01 09:36:45;;;;;;;12.93;6.57;;;27.60;50.50;;;;;;7403859;19;20502;-74
2023/10/01 09:39:22;;;;;;;12.10;5.85;;;27.60;50.80;;;;;;7405133;19;20426;-75
2023/10/01 09:41:53;;;;;;;13.82;6.68;;;27.80;50.40;;;;;;7402396;19;20332;-71
2023/10/01 09:44:19;;;;;;;15.25;7.35;;;27.70;50.60;;;;;;7399717;19;19922;-72
2023/10/01 09:46:46;;;;;;;15.15;7.25;;;27.90;50.60;;;;;;7381716;19;19918;-72
2023/10/01 09:49:25;;;;;;;13.88;7.03;;;27.90;50.00;;;;;;7396957;19;19918;-75
2023/10/01 09:51:59;;;;;;;12.85;7.28;;;27.90;50.10;;;;;;7399650;19;19922;-75
2023/10/01 09:54:28;;;;;;;16.45;7.80;;;27.90;50.40;;;;;;7399479;19;19915;-72
2023/10/01 09:56:56;;;;;;;16.10;7.57;;;28.10;50.10;;;;;;7400675;19;19918;-73
2023/10/01 09:59:26;;;;;;;15.93;8.40;;;28.20;50.20;;;;;;7397734;19;20013;-72
2023/10/01 10:01:55;;;;;;;12.57;6.40;;;28.40;49.80;;;;;;7402517;19;20295;-74
2023/10/01 10:04:29;;;;;;;13.93;7.60;;;28.60;49.20;;;;;;7402329;19;19923;-73
2023/10/01 10:07:02;;;;;;;13.65;7.38;;;28.70;48.60;;;;;;7402907;19;19910;-74
2023/10/01 10:09:30;;;;;;;14.05;7.60;;;29.00;47.80;;;;;;7402245;19;19928;-72
2023/10/01 10:12:01;;;;;;;17.52;8.20;;;29.10;47.80;;;;;;7401794;19;19922;-73
2023/10/01 10:14:33;;;;;;;15.63;8.80;;;29.30;47.30;;;;;;7401787;19;19914;-74
2023/10/01 10:20:30;;;;;;;13.65;7.70;;;29.70;46.60;;;;;;7402510;19;19925;-73
2023/10/01 10:23:29;;;;;;;15.20;8.52;;;29.90;46.30;;;;;;7402387;19;19922;-75
2023/10/01 10:26:29;;;;;;;15.50;7.93;;;30.20;45.60;;;;;;7397019;19;19915;-72
2023/10/01 10:28:55;;;;;;;12.75;7.78;;;30.40;44.80;;;;;;7400638;19;19914;-72
2023/10/01 10:31:36;;;;;;;16.05;8.95;;;30.70;44.00;;;;;;7397744;19;19907;-74
2023/10/01 10:34:28;;;;;;;12.65;7.68;;;31.10;42.80;;;;;;7403495;19;19923;-73
2023/10/01 10:36:55;;;;;;;14.27;7.80;;;31.40;42.20;;;;;;7400348;19;19934;-73
2023/10/01 10:39:49;;;;;;;13.60;8.98;;;31.60;40.40;;;;;;7396576;19;19930;-74
2023/10/01 10:42:28;;;;;;;14.25;8.30;;;31.60;40.00;;;;;;7376342;19;19921;-73
2023/10/01 10:45:24;;;;;;;15.10;8.25;;;31.60;40.40;;;;;;7399395;19;20001;-73
2023/10/01 10:48:04;;;;;;;13.38;7.90;;;31.80;40.20;;;;;;7397141;19;19923;-73
2023/10/01 10:50:39;;;;;;;14.38;8.25;;;31.80;40.10;;;;;;7402208;19;19914;-72
2023/10/01 10:53:15;;;;;;;14.73;8.75;;;31.40;40.80;;;;;;7401055;19;19914;-72
2023/10/01 10:56:07;;;;;;;14.38;8.20;;;31.70;40.60;;;;;;7399990;19;20258;-74
2023/10/01 10:58:43;;;;;;;14.93;8.88;;;31.90;39.70;;;;;;7398593;19;19939;-72
2023/10/01 11:01:19;;;;;;;13.02;8.38;;;31.90;40.00;;;;;;7397036;19;19918;-74
2023/10/01 11:03:57;;;;;;;15.73;8.63;;;32.40;39.50;;;;;;7398414;19;19930;-74
2023/10/01 11:06:47;;;;;;;12.93;8.02;;;32.70;37.90;;;;;;7395511;19;19942;-74
2023/10/01 11:09:30;;;;;;;14.38;8.77;;;32.60;38.30;;;;;;7389728;19;19959;-74
2023/10/01 11:12:19;;;;;;;15.55;9.27;;;33.00;37.80;;;;;;7400236;19;19910;-73
2023/10/01 11:15:19;;;;;;;14.65;8.90;;;32.70;38.20;;;;;;7391769;19;19923;-74
2023/10/01 11:17:48;;;;;;;13.70;8.93;;;33.00;37.50;;;;;;7391661;19;19927;-75
2023/10/01 11:20:23;;;;;;;13.75;8.70;;;32.50;37.80;;;;;;7363957;19;20298;-73
2023/10/01 11:22:54;;;;;;;14.57;8.07;;;32.90;37.30;;;;;;7386976;19;20287;-73
2023/10/01 11:25:22;;;;;;;12.30;8.73;;;33.20;36.80;;;;;;7388221;19;19926;-73
2023/10/01 11:28:10;;;;;;;13.70;9.68;;;33.70;35.80;;;;;;7397844;19;19929;-74
2023/10/01 11:30:42;;;;;;;15.10;9.95;;;33.70;35.00;;;;;;7391994;19;19915;-74
2023/10/01 11:36:07;;;;;;;15.30;10.02;;;33.70;35.10;;;;;;7396833;19;19974;-73
2023/10/01 11:38:35;;;;;;;16.83;10.25;;;33.60;34.50;;;;;;7395366;19;19946;-75
2023/10/01 11:41:09;;;;;;;16.40;9.60;;;33.30;36.20;;;;;;7402785;19;19918;-74
2023/10/01 11:43:58;;;;;;;14.60;10.05;;;33.40;35.60;;;;;;7400761;19;19942;-73
2023/10/01 11:46:35;;;;;;;14.55;9.73;;;33.60;34.60;;;;;;7392113;19;19967;-74
2023/10/01 11:49:07;;;;;;;14.50;10.05;;;33.70;34.10;;;;;;7406130;19;19925;-75
2023/10/01 11:51:43;;;;;;;14.80;9.63;;;33.70;33.70;;;;;;7402174;19;19923;-74
2023/10/01 11:54:10;;;;;;;13.27;9.10;;;33.70;34.30;;;;;;7377673;19;20359;-75
2023/10/01 11:56:43;;;;;;;14.90;10.38;;;33.80;34.30;;;;;;7399588;19;19925;-76
2023/10/01 11:59:17;;;;;;;14.52;10.02;;;34.10;33.10;;;;;;7400591;19;19915;-75
2023/10/01 12:01:49;;;;;;;14.63;10.52;;;33.70;33.50;;;;;;7396197;19;19929;-75
2023/10/01 12:04:43;;;;;;;14.32;9.55;;;33.90;34.10;;;;;;7394294;19;19914;-74
2023/10/01 12:07:15;;;;;;;16.25;11.25;;;34.40;33.00;;;;;;7403544;19;20595;-76
2023/10/01 12:09:48;;;;;;;16.33;10.60;;;34.50;32.60;;;;;;7408298;19;20339;-77
2023/10/01 12:12:39;;;;;;;13.95;9.85;;;34.60;32.40;;;;;;7406412;19;19978;-76
2023/10/01 12:18:06;;;;;;;17.00;9.73;;;33.90;32.50;;;;;;7406907;19;19913;-75
2023/10/01 12:20:51;;;;;;;13.93;9.68;;;33.10;34.90;;;;;;7400622;19;19919;-76
2023/10/01 12:23:22;;;;;;;15.10;10.30;;;32.60;36.00;;;;;;7393036;19;19938;-74
2023/10/01 12:28:23;;;;;;;14.38;8.98;;;33.60;34.00;;;;;;7401967;19;20344;-75
2023/10/01 12:31:01;;;;;;;14.98;9.50;;;34.20;33.50;;;;;;7401210;19;20339;-75
2023/10/01 12:33:42;;;;;;;16.45;10.15;;;34.20;32.80;;;;;;7398351;19;19930;-76
2023/10/01 12:39:16;;;;;;;14.98;10.25;;;34.50;32.50;;;;;;7401613;19;19925;-75
2023/10/01 12:44:32;;;;;;;15.13;10.43;;;34.70;32.00;;;;;;7398753;19;19914;-73
2023/10/01 12:47:00;;;;;;;14.20;10.68;;;35.10;30.80;;;;;;7405572;19;19930;-74
2023/10/01 12:49:35;;;;;;;12.80;8.68;;;35.10;30.40;;;;;;7395514;19;19919;-73
2023/10/01 12:52:02;;;;;;;13.63;10.25;;;35.20;30.40;;;;;;7400702;19;23882;-73
2023/10/01 12:54:36;;;;;;;13.85;9.65;;;35.10;30.80;;;;;;7397852;19;19926;-73
2023/10/01 12:57:02;;;;;;;13.40;8.90;;;35.00;30.60;;;;;;7402646;19;20760;-73
2023/10/01 12:59:40;;;;;;;15.15;9.30;;;34.80;30.90;;;;;;7396421;19;19928;-74
2023/10/01 13:07:40;;;;;;;14.50;9.60;;;33.70;33.70;;;;;;7376737;19;19937;-75
2023/10/01 13:10:07;;;;;;;12.75;9.88;;;33.90;34.50;;;;;;7402855;19;19943;-75
2023/10/01 13:12:39;;;;;;;14.20;9.60;;;34.70;32.90;;;;;;7402570;19;19935;-75
2023/10/01 13:15:14;;;;;;;13.40;8.70;;;35.00;31.80;;;;;;7399175;19;19919;-75
2023/10/01 13:17:45;;;;;;;15.82;10.45;;;34.70;31.80;;;;;;7404341;19;19939;-75
2023/10/01 13:20:26;;;;;;;13.73;7.55;;;34.60;32.10;;;;;;7403576;19;19927;-75
2023/10/01 13:22:59;;;;;;;14.00;9.30;;;34.70;32.20;;;;;;7399226;19;19914;-76
2023/10/01 13:25:28;;;;;;;14.68;9.68;;;34.80;31.60;;;;;;7397667;19;19925;-75
2023/10/01 13:28:06;;;;;;;15.52;9.18;;;35.00;31.40;;;;;;7403542;19;19986;-73
2023/10/01 13:33:23;;;;;;;14.90;10.30;;;35.40;30.60;;;;;;7394567;19;19925;-74
2023/10/01 13:35:58;;;;;;;15.18;9.40;;;34.40;32.40;;;;;;7399951;19;19922;-73
2023/10/01 14:08:45;;;;;;;18.13;10.88;;;36.90;27.80;;;;;;7390636;19;19950;-75
2023/10/01 14:11:12;;;;;;;13.95;10.93;;;36.20;28.00;;;;;;7390688;19;19974;-73
2023/10/01 14:13:41;;;;;;;14.80;9.80;;;36.00;28.50;;;;;;7389568;19;19926;-74
2023/10/01 14:16:11;;;;;;;14.70;9.77;;;36.50;28.20;;;;;;7389755;19;19915;-73
2023/10/01 14:18:53;;;;;;;31.60;28.08;;;36.70;27.40;;;;;;7391353;19;19932;-73
2023/10/01 14:21:24;;;;;;;14.88;8.27;;;37.00;27.20;;;;;;7387891;19;19974;-75
2023/10/01 14:23:52;;;;;;;13.57;7.88;;;36.80;26.90;;;;;;7388293;19;19933;-74
2023/10/01 14:26:27;;;;;;;12.73;9.20;;;36.50;27.60;;;;;;7365904;19;19914;-74
2023/10/01 14:28:55;;;;;;;14.57;9.88;;;36.30;27.50;;;;;;7391231;19;19915;-75
2023/10/01 14:34:07;;;;;;;13.75;9.75;;;35.90;28.50;;;;;;7400274;19;19928;-75
2023/10/01 14:36:39;;;;;;;14.25;10.25;;;36.20;28.10;;;;;;7403459;19;20420;-74
2023/10/01 14:39:08;;;;;;;13.25;9.13;;;36.60;27.80;;;;;;7402087;19;19910;-73
2023/10/01 14:41:41;;;;;;;12.80;9.35;;;36.70;27.40;;;;;;7403885;19;20319;-73
2023/10/01 14:44:07;;;;;;;14.05;10.25;;;36.60;27.30;;;;;;7402619;19;19967;-75
2023/10/01 14:46:37;;;;;;;14.40;9.57;;;36.80;27.30;;;;;;7401438;19;19911;-75
2023/10/01 14:49:07;;;;;;;13.73;8.98;;;36.50;27.20;;;;;;7401227;19;19918;-74